Time;durP1;ratioP1;P1;durP2;ratioP2;P2;SDS_P1;SDS_P2;PMS_P1;PMS_P2;Temp;Humidity;BMP_temperature;BMP_pressure;BME280_temperature;BME280_humidity;BME280_pressure;Samples;Min_cycle;Max_cycle;Signal;HPM_P1;HPM_P2
2021/07/03 00:01:14;;;;;;;1.93;1.53;;;15.30;98.00;;;;;;5072133;28;20529;-69
2021/07/03 00:03:41;;;;;;;1.40;1.30;;;15.30;98.00;;;;;;5072394;28;20464;-69
2021/07/03 00:06:09;;;;;;;1.37;1.30;;;15.00;98.00;;;;;;5072023;28;20484;-69
2021/07/03 00:08:36;;;;;;;1.50;1.30;;;14.80;98.00;;;;;;5072058;28;20675;-69
2021/07/03 00:11:07;;;;;;;1.80;1.70;;;14.60;98.00;;;;;;5070902;28;20464;-69
2021/07/03 00:13:35;;;;;;;3.20;1.60;;;14.50;98.00;;;;;;5072039;28;20463;-70
2021/07/03 00:16:02;;;;;;;1.60;1.23;;;14.40;98.00;;;;;;5070900;28;20949;-69
2021/07/03 00:18:29;;;;;;;2.70;1.40;;;14.40;98.00;;;;;;5071923;28;20466;-70
2021/07/03 00:20:56;;;;;;;3.60;1.70;;;14.40;98.00;;;;;;5072030;28;20529;-68
2021/07/03 00:23:23;;;;;;;1.50;1.50;;;14.40;98.00;;;;;;5071858;28;20468;-70
2021/07/03 00:25:53;;;;;;;2.13;1.43;;;14.50;98.00;;;;;;5072002;28;20493;-69
2021/07/03 00:28:22;;;;;;;1.70;1.33;;;14.50;98.00;;;;;;5071879;28;20547;-68
2021/07/03 00:30:51;;;;;;;1.87;1.67;;;14.60;98.00;;;;;;5072112;28;20463;-69
2021/07/03 00:33:18;;;;;;;1.30;1.20;;;14.70;98.00;;;;;;5072107;28;20467;-68
2021/07/03 00:35:47;;;;;;;1.73;1.40;;;14.80;98.00;;;;;;5071867;28;20453;-69
2021/07/03 00:38:14;;;;;;;1.90;1.60;;;14.70;98.00;;;;;;5071731;28;20463;-69
2021/07/03 00:40:41;;;;;;;1.23;1.10;;;14.60;98.00;;;;;;5071853;28;20471;-69
2021/07/03 00:43:08;;;;;;;1.57;1.53;;;14.60;98.00;;;;;;5070524;28;20934;-70
2021/07/03 00:45:37;;;;;;;3.50;1.67;;;14.50;98.00;;;;;;5072004;28;20881;-70
2021/07/03 00:48:04;;;;;;;1.40;1.10;;;14.30;98.00;;;;;;5071831;28;20475;-69
2021/07/03 00:50:31;;;;;;;3.43;1.40;;;14.20;98.00;;;;;;5071914;28;20463;-69
2021/07/03 00:52:59;;;;;;;2.60;1.57;;;14.10;98.00;;;;;;5071400;28;20503;-68
2021/07/03 00:55:27;;;;;;;1.20;1.10;;;14.10;98.00;;;;;;5071744;28;20456;-70
2021/07/03 00:57:55;;;;;;;2.67;1.50;;;14.20;98.00;;;;;;5071475;28;20490;-69
2021/07/03 01:00:23;;;;;;;1.40;1.37;;;14.20;98.00;;;;;;5071539;28;20527;-69
2021/07/03 01:02:51;;;;;;;1.20;1.00;;;14.10;98.00;;;;;;5075015;28;20846;-68
2021/07/03 01:05:19;;;;;;;1.57;1.37;;;14.10;98.00;;;;;;5075433;28;21045;-68
2021/07/03 01:07:46;;;;;;;1.90;1.43;;;14.00;98.00;;;;;;5074262;28;20452;-69
2021/07/03 01:10:20;;;;;;;3.17;1.40;;;14.10;98.00;;;;;;5075481;28;20521;-68
2021/07/03 01:12:47;;;;;;;2.17;1.63;;;14.10;98.00;;;;;;5075407;28;20560;-69
2021/07/03 01:15:15;;;;;;;3.87;1.50;;;14.00;98.00;;;;;;5075582;28;20451;-68
2021/07/03 01:17:42;;;;;;;1.20;1.10;;;14.10;98.00;;;;;;5075528;28;20540;-70
2021/07/03 01:20:13;;;;;;;1.50;1.40;;;14.10;98.00;;;;;;5075247;28;20466;-69
2021/07/03 01:22:42;;;;;;;3.37;1.20;;;14.00;98.00;;;;;;5075128;28;20456;-69
2021/07/03 01:25:11;;;;;;;1.30;1.20;;;14.10;98.00;;;;;;5075345;28;20469;-69
2021/07/03 01:27:38;;;;;;;1.90;1.80;;;14.10;98.00;;;;;;5074074;28;20466;-69
2021/07/03 01:30:08;;;;;;;1.80;1.50;;;13.90;98.00;;;;;;5075147;28;20522;-68
2021/07/03 01:32:36;;;;;;;1.87;1.40;;;13.80;98.00;;;;;;5075205;28;20510;-70
2021/07/03 01:35:05;;;;;;;2.93;2.07;;;13.70;98.00;;;;;;5075183;28;20464;-69
2021/07/03 01:37:32;;;;;;;2.10;1.30;;;13.70;98.00;;;;;;5074998;28;20449;-69
2021/07/03 01:40:01;;;;;;;2.03;1.53;;;13.80;98.00;;;;;;5075040;28;20993;-70
2021/07/03 01:42:28;;;;;;;5.13;2.03;;;13.80;98.00;;;;;;5074743;28;20543;-68
2021/07/03 01:44:56;;;;;;;1.30;1.30;;;13.90;98.00;;;;;;5075052;28;20457;-69
2021/07/03 01:47:23;;;;;;;2.13;1.60;;;13.90;98.00;;;;;;5075009;28;20504;-68
2021/07/03 01:49:51;;;;;;;1.83;1.33;;;13.80;98.00;;;;;;5074895;28;20456;-67
2021/07/03 01:52:19;;;;;;;1.20;1.00;;;13.70;98.00;;;;;;5074869;28;20521;-67
2021/07/03 01:54:46;;;;;;;3.00;1.80;;;13.70;98.00;;;;;;5074975;28;20492;-70
2021/07/03 01:57:16;;;;;;;1.53;1.40;;;13.80;98.00;;;;;;5074766;28;20462;-68
2021/07/03 01:59:43;;;;;;;1.70;1.50;;;13.80;98.00;;;;;;5074594;28;20462;-69
2021/07/03 02:02:10;;;;;;;4.00;1.47;;;13.80;98.00;;;;;;5074774;28;20458;-69
2021/07/03 02:04:37;;;;;;;2.03;1.43;;;13.70;98.00;;;;;;5074572;28;20930;-69
2021/07/03 02:07:08;;;;;;;2.07;1.67;;;13.60;98.00;;;;;;5074458;28;20902;-67
2021/07/03 02:09:35;;;;;;;1.30;1.20;;;13.50;98.00;;;;;;5073600;28;20464;-70
2021/07/03 02:12:05;;;;;;;1.87;1.30;;;13.50;98.00;;;;;;5074431;28;20467;-68
2021/07/03 02:14:33;;;;;;;1.57;1.50;;;13.60;98.00;;;;;;5074633;28;20988;-68
2021/07/03 02:17:01;;;;;;;1.93;1.40;;;13.70;98.00;;;;;;5074214;28;20807;-68
2021/07/03 02:19:28;;;;;;;1.77;1.57;;;13.50;98.00;;;;;;5073778;28;20503;-69
2021/07/03 02:21:55;;;;;;;4.13;1.43;;;13.40;98.00;;;;;;5074128;28;20525;-68
2021/07/03 02:24:22;;;;;;;2.03;1.53;;;13.30;98.00;;;;;;5073899;28;20515;-69
2021/07/03 02:26:49;;;;;;;1.53;1.47;;;13.30;98.00;;;;;;5073899;28;20490;-69
2021/07/03 02:29:16;;;;;;;1.60;1.60;;;13.30;98.00;;;;;;5074134;28;20466;-68
2021/07/03 02:31:45;;;;;;;1.50;1.30;;;13.40;98.00;;;;;;5073899;28;20523;-69
2021/07/03 02:34:15;;;;;;;1.60;1.20;;;13.60;98.00;;;;;;5073610;28;20512;-69
2021/07/03 02:36:42;;;;;;;1.70;1.33;;;13.50;98.00;;;;;;5073738;28;20521;-69
2021/07/03 02:39:10;;;;;;;1.60;1.30;;;13.40;98.00;;;;;;5074126;28;20543;-68
2021/07/03 02:41:37;;;;;;;3.20;1.93;;;13.20;98.00;;;;;;5073789;28;21192;-68
2021/07/03 02:44:04;;;;;;;1.97;1.50;;;13.10;98.00;;;;;;5073483;28;20992;-69
2021/07/03 02:46:31;;;;;;;1.63;1.47;;;13.00;98.00;;;;;;5073520;28;20486;-69
2021/07/03 02:49:00;;;;;;;1.30;1.20;;;13.10;98.00;;;;;;5073845;28;20459;-68
2021/07/03 02:51:27;;;;;;;1.80;1.30;;;13.20;98.00;;;;;;5073481;28;20520;-68
2021/07/03 02:53:54;;;;;;;1.63;1.57;;;13.40;98.00;;;;;;5073624;28;20460;-69
2021/07/03 02:56:21;;;;;;;1.40;1.20;;;13.50;98.00;;;;;;5072446;28;20453;-68
2021/07/03 02:58:48;;;;;;;4.40;1.40;;;13.60;98.00;;;;;;5073535;28;20463;-67
2021/07/03 03:01:15;;;;;;;2.53;1.60;;;13.40;98.00;;;;;;5073471;28;20458;-68
2021/07/03 03:03:43;;;;;;;1.37;1.27;;;13.20;98.00;;;;;;5073047;28;21007;-66
2021/07/03 03:06:13;;;;;;;2.33;1.40;;;13.10;98.00;;;;;;5073362;28;20841;-66
2021/07/03 03:08:41;;;;;;;1.33;1.20;;;13.10;98.00;;;;;;5073257;28;20470;-66
2021/07/03 03:11:08;;;;;;;1.40;1.37;;;13.10;98.00;;;;;;5073230;28;20524;-67
2021/07/03 03:13:35;;;;;;;2.37;1.20;;;13.00;98.00;;;;;;5073386;28;20492;-66
2021/07/03 03:16:02;;;;;;;1.30;1.30;;;13.00;98.00;;;;;;5072887;28;20468;-68
2021/07/03 03:18:29;;;;;;;1.90;1.30;;;12.90;98.00;;;;;;5073079;28;20536;-67
2021/07/03 03:20:56;;;;;;;1.40;1.37;;;12.80;98.00;;;;;;5073185;28;20537;-68
2021/07/03 03:23:24;;;;;;;1.40;1.30;;;12.90;98.00;;;;;;5072896;28;20519;-68
2021/07/03 03:25:52;;;;;;;1.30;1.23;;;13.00;98.00;;;;;;5072547;28;20485;-68
2021/07/03 03:28:19;;;;;;;2.03;1.60;;;13.20;98.00;;;;;;5073222;28;20453;-67
2021/07/03 03:30:46;;;;;;;2.63;1.37;;;13.30;98.00;;;;;;5072852;28;20464;-67
2021/07/03 03:33:13;;;;;;;2.00;1.60;;;13.30;98.00;;;;;;5072836;28;20518;-67
2021/07/03 03:35:40;;;;;;;1.83;1.30;;;13.10;98.00;;;;;;5072129;28;20462;-67
2021/07/03 03:38:07;;;;;;;2.40;1.53;;;13.00;98.00;;;;;;5072685;28;20457;-68
2021/07/03 03:40:36;;;;;;;1.87;1.33;;;13.00;98.00;;;;;;5072908;28;20471;-67
2021/07/03 03:43:04;;;;;;;1.60;1.43;;;12.90;98.00;;;;;;5072749;28;20460;-67
2021/07/03 03:45:31;;;;;;;1.90;1.40;;;12.90;98.00;;;;;;5071329;28;20822;-67
2021/07/03 03:47:59;;;;;;;1.50;1.30;;;12.90;98.00;;;;;;5072404;28;21047;-68
2021/07/03 03:50:27;;;;;;;1.40;1.30;;;12.80;98.00;;;;;;5072397;28;20524;-68
2021/07/03 03:52:54;;;;;;;1.80;1.50;;;12.90;98.00;;;;;;5072032;28;20472;-68
2021/07/03 03:55:21;;;;;;;1.50;1.10;;;13.00;98.00;;;;;;5072307;28;20460;-67
2021/07/03 03:57:49;;;;;;;2.43;1.37;;;13.10;98.00;;;;;;5071100;28;20519;-68
2021/07/03 04:00:18;;;;;;;2.07;1.33;;;13.20;98.00;;;;;;5072192;28;20454;-67
2021/07/03 04:02:46;;;;;;;1.40;1.20;;;13.10;98.00;;;;;;5072104;28;20552;-67
2021/07/03 04:05:15;;;;;;;3.83;1.50;;;13.00;98.00;;;;;;5072333;28;20511;-67
2021/07/03 04:07:43;;;;;;;1.80;1.20;;;13.00;98.00;;;;;;5071551;28;20484;-67
2021/07/03 04:10:12;;;;;;;2.13;1.40;;;13.10;98.00;;;;;;5072049;28;21026;-67
2021/07/03 04:12:40;;;;;;;2.97;1.43;;;13.20;98.00;;;;;;5071977;28;20942;-67
2021/07/03 04:15:10;;;;;;;1.50;1.40;;;13.20;98.00;;;;;;5071969;28;20461;-67
2021/07/03 04:17:38;;;;;;;1.97;1.30;;;13.20;98.00;;;;;;5071964;28;20518;-66
2021/07/03 04:20:07;;;;;;;3.10;1.90;;;13.20;98.00;;;;;;5070720;28;20552;-68
2021/07/03 04:22:35;;;;;;;1.47;1.43;;;13.40;98.00;;;;;;5071826;28;20955;-68
2021/07/03 04:25:03;;;;;;;4.03;1.73;;;13.30;98.00;;;;;;5072066;28;20509;-67
2021/07/03 04:27:30;;;;;;;1.20;1.10;;;13.10;98.00;;;;;;5071883;28;20875;-66
2021/07/03 04:29:57;;;;;;;1.50;1.40;;;13.10;98.00;;;;;;5071737;28;20485;-67
2021/07/03 04:32:28;;;;;;;1.30;1.20;;;13.20;98.00;;;;;;5071793;28;20462;-68
2021/07/03 04:34:55;;;;;;;2.23;1.70;;;13.30;98.00;;;;;;5071912;28;20462;-67
2021/07/03 04:37:22;;;;;;;2.10;1.50;;;13.40;98.00;;;;;;5070969;28;20460;-67
2021/07/03 04:39:49;;;;;;;1.20;1.10;;;13.50;98.00;;;;;;5071854;28;20514;-67
2021/07/03 04:42:16;;;;;;;3.50;1.57;;;13.50;98.00;;;;;;5071761;28;20462;-67
2021/07/03 04:44:43;;;;;;;1.30;1.23;;;13.40;98.00;;;;;;5071701;28;20473;-68
2021/07/03 04:47:10;;;;;;;1.30;1.20;;;13.40;98.00;;;;;;5070985;28;20492;-65
2021/07/03 04:49:39;;;;;;;1.90;1.27;;;13.30;98.00;;;;;;5071153;28;20461;-66
2021/07/03 04:52:06;;;;;;;5.53;1.80;;;13.30;98.00;;;;;;5069973;28;20510;-67
2021/07/03 04:54:33;;;;;;;3.00;1.63;;;13.30;98.00;;;;;;5071610;28;20530;-68
2021/07/03 04:57:11;;;;;;;1.67;1.53;;;13.40;98.00;;;;;;5071535;28;20459;-67
2021/07/03 04:59:39;;;;;;;3.83;1.50;;;13.60;98.00;;;;;;5071560;28;20453;-68
2021/07/03 05:02:08;;;;;;;1.33;1.30;;;13.90;98.00;;;;;;5071714;28;20463;-67
2021/07/03 05:04:37;;;;;;;1.67;1.47;;;14.10;98.00;;;;;;5071344;28;20871;-67
2021/07/03 05:07:06;;;;;;;4.03;2.20;;;14.20;98.00;;;;;;5070509;28;20490;-67
2021/07/03 05:09:33;;;;;;;1.80;1.43;;;14.30;98.00;;;;;;5071533;28;20449;-67
2021/07/03 05:12:00;;;;;;;2.10;1.43;;;14.30;98.00;;;;;;5071467;28;20576;-67
2021/07/03 05:14:28;;;;;;;2.13;1.40;;;14.40;98.00;;;;;;5071220;28;20465;-68
2021/07/03 05:16:56;;;;;;;2.27;1.33;;;14.40;98.00;;;;;;5070013;28;20512;-68
2021/07/03 05:19:23;;;;;;;1.40;1.30;;;14.50;98.00;;;;;;5071383;28;21178;-67
2021/07/03 05:21:50;;;;;;;1.23;1.07;;;14.50;98.00;;;;;;5071199;28;20450;-68
2021/07/03 05:24:19;;;;;;;2.23;1.77;;;14.40;98.00;;;;;;5071248;28;20453;-68
2021/07/03 05:26:46;;;;;;;1.60;1.30;;;14.50;98.00;;;;;;5071382;28;20561;-68
2021/07/03 05:29:13;;;;;;;5.43;2.97;;;14.50;98.00;;;;;;5071133;28;20933;-69
2021/07/03 05:31:42;;;;;;;1.57;1.27;;;14.60;98.00;;;;;;5071203;28;20460;-67
2021/07/03 05:34:09;;;;;;;1.20;1.20;;;14.70;98.00;;;;;;5071299;28;20455;-68
2021/07/03 05:36:36;;;;;;;3.30;1.57;;;14.80;98.00;;;;;;5071318;28;20991;-69
2021/07/03 05:39:04;;;;;;;2.50;1.60;;;14.90;98.00;;;;;;5071093;28;20470;-68
2021/07/03 05:41:35;;;;;;;2.77;2.00;;;14.90;98.00;;;;;;5071166;28;20525;-68
2021/07/03 05:44:03;;;;;;;2.77;1.80;;;15.00;98.00;;;;;;5071167;28;20491;-70
2021/07/03 05:46:31;;;;;;;1.30;1.20;;;15.10;98.00;;;;;;5071066;28;20507;-68
2021/07/03 05:48:58;;;;;;;1.87;1.43;;;15.10;98.00;;;;;;5074244;28;20469;-68
2021/07/03 05:51:27;;;;;;;2.10;1.50;;;15.20;98.00;;;;;;5074846;28;20469;-68
2021/07/03 05:53:54;;;;;;;1.60;1.40;;;15.30;98.00;;;;;;5074642;28;20989;-67
2021/07/03 05:56:21;;;;;;;1.30;1.30;;;15.40;98.00;;;;;;5074846;28;20531;-69
2021/07/03 05:58:50;;;;;;;1.50;1.27;;;15.40;98.00;;;;;;5074663;28;20462;-67
2021/07/03 06:01:18;;;;;;;2.27;1.70;;;15.50;98.00;;;;;;5074728;28;20509;-67
2021/07/03 06:03:45;;;;;;;6.83;1.83;;;15.60;98.00;;;;;;5074009;28;20456;-68
2021/07/03 06:06:12;;;;;;;1.40;1.30;;;15.60;98.00;;;;;;5074846;28;20482;-68
2021/07/03 06:08:39;;;;;;;1.50;1.47;;;15.70;98.00;;;;;;5074581;28;20483;-68
2021/07/03 06:11:06;;;;;;;2.20;1.53;;;15.80;98.00;;;;;;5074679;28;20464;-68
2021/07/03 06:13:35;;;;;;;1.40;1.30;;;15.80;98.00;;;;;;5074133;28;20459;-68
2021/07/03 06:16:04;;;;;;;1.47;1.13;;;15.80;98.00;;;;;;5074503;28;20555;-67
2021/07/03 06:18:31;;;;;;;1.73;1.40;;;15.90;98.00;;;;;;5074094;28;20483;-69
2021/07/03 06:21:00;;;;;;;1.60;1.20;;;16.00;98.00;;;;;;5074214;28;20529;-67
2021/07/03 06:23:28;;;;;;;2.13;1.63;;;16.10;98.00;;;;;;5074175;28;20495;-68
2021/07/03 06:25:58;;;;;;;1.80;1.40;;;16.20;98.00;;;;;;5074123;28;20775;-68
2021/07/03 06:28:26;;;;;;;4.20;1.50;;;16.20;98.00;;;;;;5073763;28;20534;-68
2021/07/03 06:30:53;;;;;;;2.17;1.50;;;16.30;98.00;;;;;;5073059;28;20452;-67
2021/07/03 06:33:23;;;;;;;1.83;1.60;;;16.40;98.00;;;;;;5073862;28;20553;-68
2021/07/03 06:35:50;;;;;;;4.27;1.90;;;16.50;98.00;;;;;;5073862;28;21020;-69
2021/07/03 06:38:18;;;;;;;2.37;1.40;;;16.60;98.00;;;;;;5073989;28;20506;-68
2021/07/03 06:40:45;;;;;;;2.20;1.43;;;16.70;98.00;;;;;;5073219;28;20502;-70
2021/07/03 06:43:13;;;;;;;1.50;1.43;;;16.80;98.00;;;;;;5073494;28;20518;-70
2021/07/03 06:45:40;;;;;;;1.70;1.40;;;16.90;98.00;;;;;;5073830;28;20521;-69
2021/07/03 06:48:07;;;;;;;1.87;1.40;;;17.10;98.00;;;;;;5073607;28;20484;-69
2021/07/03 06:50:36;;;;;;;1.50;1.50;;;17.30;98.00;;;;;;5072509;28;20464;-70
2021/07/03 06:53:03;;;;;;;1.60;1.40;;;17.30;98.00;;;;;;5073540;28;20476;-70
2021/07/03 06:55:30;;;;;;;3.00;1.50;;;17.40;98.00;;;;;;5073642;28;20464;-70
2021/07/03 06:57:57;;;;;;;3.07;1.90;;;17.50;98.00;;;;;;5073289;28;20852;-69
2021/07/03 07:00:25;;;;;;;1.47;1.23;;;17.70;98.00;;;;;;5072676;28;20457;-69
2021/07/03 07:02:52;;;;;;;2.83;1.30;;;17.80;98.00;;;;;;5073398;28;20453;-69
2021/07/03 07:05:20;;;;;;;2.20;1.33;;;17.90;98.00;;;;;;5073563;28;20461;-69
2021/07/03 07:07:49;;;;;;;1.60;1.30;;;18.00;98.00;;;;;;5073375;28;20491;-69
2021/07/03 07:10:17;;;;;;;2.00;1.70;;;18.10;98.00;;;;;;5073350;28;20461;-69
2021/07/03 07:12:44;;;;;;;2.70;1.70;;;18.30;98.00;;;;;;5073386;28;20460;-69
2021/07/03 07:15:11;;;;;;;1.50;1.30;;;18.40;98.00;;;;;;5073284;28;20820;-69
2021/07/03 07:17:39;;;;;;;1.40;1.30;;;18.60;98.00;;;;;;5073318;28;20461;-69
2021/07/03 07:20:07;;;;;;;2.10;1.53;;;18.80;98.00;;;;;;5071958;28;20939;-69
2021/07/03 07:22:34;;;;;;;1.33;1.30;;;18.80;98.00;;;;;;5073224;28;20542;-69
2021/07/03 07:25:03;;;;;;;1.43;1.30;;;18.90;98.00;;;;;;5073173;28;20460;-69
2021/07/03 07:27:30;;;;;;;1.70;1.10;;;19.10;98.00;;;;;;5073050;28;20983;-68
2021/07/03 07:29:57;;;;;;;2.37;1.40;;;19.30;98.00;;;;;;5073102;28;21064;-70
2021/07/03 07:32:36;;;;;;;2.47;1.50;;;19.30;98.00;;;;;;5072978;28;20578;-68
2021/07/03 07:35:04;;;;;;;1.53;1.40;;;19.40;98.00;;;;;;5072934;28;20461;-68
2021/07/03 07:37:31;;;;;;;1.70;1.47;;;19.40;98.00;;;;;;5072809;28;20518;-68
2021/07/03 07:39:58;;;;;;;2.13;1.80;;;19.40;98.00;;;;;;5069696;28;20514;-70
2021/07/03 07:42:26;;;;;;;1.40;1.20;;;19.50;98.00;;;;;;5072107;28;20477;-69
2021/07/03 07:44:53;;;;;;;2.40;1.57;;;19.60;98.00;;;;;;5072127;28;20449;-69
2021/07/03 07:47:21;;;;;;;1.60;1.33;;;19.70;98.00;;;;;;5071722;28;20484;-69
2021/07/03 07:49:49;;;;;;;1.60;1.53;;;19.70;98.00;;;;;;5072000;28;20514;-69
2021/07/03 07:52:16;;;;;;;1.60;1.53;;;19.80;98.00;;;;;;5072366;28;20456;-69
2021/07/03 07:54:43;;;;;;;4.10;2.40;;;19.90;98.00;;;;;;5071905;28;20455;-69
2021/07/03 07:57:10;;;;;;;1.93;1.40;;;20.00;98.00;;;;;;5070732;28;20506;-68
2021/07/03 07:59:38;;;;;;;1.50;1.30;;;20.10;98.00;;;;;;5072321;28;20943;-70
2021/07/03 08:02:05;;;;;;;1.60;1.30;;;20.10;98.00;;;;;;5070910;28;20514;-68
2021/07/03 08:04:33;;;;;;;1.57;1.23;;;20.20;98.00;;;;;;5072106;28;20457;-70
2021/07/03 08:07:00;;;;;;;3.00;1.63;;;20.20;98.00;;;;;;5072176;28;20818;-70
2021/07/03 08:09:27;;;;;;;2.10;1.87;;;20.20;98.00;;;;;;5071108;28;20465;-71
2021/07/03 08:11:55;;;;;;;1.87;1.60;;;20.40;98.00;;;;;;5071366;28;20469;-70
2021/07/03 08:14:22;;;;;;;2.53;1.37;;;20.50;98.00;;;;;;5071303;28;20544;-70
2021/07/03 08:16:50;;;;;;;2.43;1.80;;;20.60;98.00;;;;;;5070669;28;20513;-69
2021/07/03 08:19:30;;;;;;;1.57;1.40;;;20.80;98.00;;;;;;5071968;28;20468;-69
2021/07/03 08:21:58;;;;;;;2.40;2.00;;;21.00;98.00;;;;;;5071990;28;20457;-69
2021/07/03 08:24:29;;;;;;;1.40;1.30;;;21.00;98.00;;;;;;5071943;28;20556;-69
2021/07/03 08:26:56;;;;;;;1.60;1.50;;;21.30;98.00;;;;;;5072258;28;20460;-69
2021/07/03 08:29:24;;;;;;;2.03;1.67;;;21.40;98.00;;;;;;5071797;28;20489;-69
2021/07/03 08:31:52;;;;;;;2.03;1.43;;;21.50;98.00;;;;;;5072203;28;20460;-69
2021/07/03 08:34:20;;;;;;;2.50;1.57;;;21.60;98.00;;;;;;5071970;28;20503;-69
2021/07/03 08:36:47;;;;;;;1.40;1.40;;;21.60;98.00;;;;;;5071945;28;20507;-70
2021/07/03 08:39:14;;;;;;;1.50;1.40;;;21.70;98.00;;;;;;5071988;28;20857;-69
2021/07/03 08:41:43;;;;;;;1.90;1.50;;;21.80;98.00;;;;;;5071974;28;20515;-70
2021/07/03 08:44:13;;;;;;;1.70;1.43;;;21.80;98.00;;;;;;5071907;28;20773;-69
2021/07/03 08:46:43;;;;;;;2.20;1.93;;;22.00;98.00;;;;;;5071903;28;20464;-69
2021/07/03 08:49:13;;;;;;;3.20;1.90;;;22.10;98.00;;;;;;5071906;28;20485;-68
2021/07/03 08:51:43;;;;;;;1.93;1.50;;;22.30;98.00;;;;;;5071860;28;20456;-69
2021/07/03 08:54:10;;;;;;;3.00;1.70;;;22.50;98.00;;;;;;5071412;28;20543;-70
2021/07/03 08:56:38;;;;;;;2.60;1.40;;;22.60;98.00;;;;;;5071230;28;20587;-69
2021/07/03 08:59:15;;;;;;;1.40;1.20;;;22.80;97.30;;;;;;5069924;28;20526;-69
2021/07/03 09:01:52;;;;;;;1.90;1.63;;;22.90;96.90;;;;;;5071569;28;20543;-69
2021/07/03 09:04:36;;;;;;;1.93;1.50;;;23.00;96.60;;;;;;5071190;28;20513;-70
2021/07/03 09:07:14;;;;;;;1.50;1.40;;;23.10;94.20;;;;;;5071422;28;20518;-69
2021/07/03 09:09:41;;;;;;;2.70;1.57;;;23.20;94.40;;;;;;5071239;28;20493;-69
2021/07/03 09:12:09;;;;;;;3.23;2.23;;;23.30;94.70;;;;;;5069964;28;20468;-69
2021/07/03 09:14:41;;;;;;;1.60;1.50;;;23.50;93.80;;;;;;5071280;28;20456;-69
2021/07/03 09:17:14;;;;;;;2.13;1.70;;;23.50;92.30;;;;;;5070030;28;20808;-69
2021/07/03 09:19:52;;;;;;;1.70;1.70;;;23.60;93.50;;;;;;5071201;28;20472;-70
2021/07/03 09:22:19;;;;;;;1.87;1.80;;;23.60;91.30;;;;;;5070746;28;20530;-69
2021/07/03 09:24:46;;;;;;;2.27;1.67;;;23.60;91.20;;;;;;5075223;28;20502;-70
2021/07/03 09:27:13;;;;;;;1.30;1.20;;;23.70;91.50;;;;;;5075113;28;20457;-69
2021/07/03 09:29:50;;;;;;;2.07;1.90;;;23.70;91.90;;;;;;5074050;28;21117;-69
2021/07/03 09:32:17;;;;;;;1.60;1.40;;;23.90;91.20;;;;;;5074942;28;20462;-70
2021/07/03 09:34:45;;;;;;;1.50;1.40;;;24.00;90.20;;;;;;5075311;28;20453;-69
2021/07/03 09:37:15;;;;;;;2.10;1.60;;;24.20;89.90;;;;;;5074707;28;20460;-69
2021/07/03 09:39:42;;;;;;;2.20;1.60;;;24.30;90.20;;;;;;5075063;28;20506;-69
2021/07/03 09:42:16;;;;;;;1.53;1.43;;;24.40;87.50;;;;;;5075082;28;20522;-70
2021/07/03 09:44:44;;;;;;;1.70;1.67;;;24.50;87.00;;;;;;5074884;28;20791;-70
2021/07/03 09:47:17;;;;;;;1.90;1.50;;;24.50;84.10;;;;;;5074313;28;20465;-67
2021/07/03 09:49:45;;;;;;;2.60;1.60;;;24.40;79.60;;;;;;5074955;28;20571;-69
2021/07/03 09:52:12;;;;;;;2.27;1.60;;;24.40;83.40;;;;;;5074720;28;20522;-69
2021/07/03 09:54:41;;;;;;;1.60;1.30;;;24.60;84.90;;;;;;5074734;28;20816;-69
2021/07/03 09:57:10;;;;;;;1.80;1.43;;;24.70;83.50;;;;;;5074443;28;20510;-69
2021/07/03 09:59:37;;;;;;;1.70;1.60;;;24.80;80.30;;;;;;5074758;28;20506;-69
2021/07/03 10:02:05;;;;;;;2.23;1.83;;;24.90;81.50;;;;;;5074721;28;20825;-69
2021/07/03 10:04:33;;;;;;;1.70;1.50;;;25.00;81.90;;;;;;5074568;28;20476;-70
2021/07/03 10:07:06;;;;;;;1.50;1.30;;;25.20;84.30;;;;;;5074769;28;20456;-70
2021/07/03 10:09:38;;;;;;;1.67;1.43;;;25.40;80.10;;;;;;5074466;28;20492;-71
2021/07/03 10:12:07;;;;;;;1.47;1.37;;;25.50;80.30;;;;;;5074670;28;20522;-69
2021/07/03 10:14:39;;;;;;;2.37;1.60;;;25.70;81.70;;;;;;5074491;28;20479;-69
2021/07/03 10:17:07;;;;;;;1.80;1.43;;;25.80;82.40;;;;;;5074387;28;20974;-69
2021/07/03 10:19:36;;;;;;;1.70;1.60;;;25.90;78.80;;;;;;5074485;28;20457;-69
2021/07/03 10:22:14;;;;;;;1.83;1.50;;;25.90;77.20;;;;;;5074293;28;20465;-69
2021/07/03 10:24:44;;;;;;;2.03;1.53;;;26.10;77.00;;;;;;5072889;28;20469;-70
2021/07/03 10:27:19;;;;;;;2.13;1.50;;;26.20;78.10;;;;;;5074045;28;20453;-69
2021/07/03 10:29:47;;;;;;;2.20;1.57;;;26.30;77.60;;;;;;5074199;28;20488;-69
2021/07/03 10:32:22;;;;;;;1.97;1.47;;;26.10;79.30;;;;;;5073890;28;20456;-69
2021/07/03 10:34:50;;;;;;;2.80;1.70;;;25.90;76.40;;;;;;5072752;28;20950;-69
2021/07/03 10:37:33;;;;;;;2.23;1.83;;;25.80;79.90;;;;;;5073872;28;20515;-69
2021/07/03 10:40:00;;;;;;;2.87;2.27;;;25.70;81.40;;;;;;5073751;28;20823;-69
2021/07/03 10:42:43;;;;;;;2.10;1.60;;;25.40;77.30;;;;;;5073799;28;20842;-69
2021/07/03 10:45:12;;;;;;;1.80;1.70;;;25.40;78.20;;;;;;5073425;28;20548;-70
2021/07/03 10:47:41;;;;;;;1.90;1.50;;;25.60;78.20;;;;;;5073823;28;20975;-69
2021/07/03 10:50:22;;;;;;;1.70;1.47;;;25.90;78.20;;;;;;5073834;28;20575;-69
2021/07/03 10:52:52;;;;;;;1.50;1.40;;;26.20;79.00;;;;;;5073792;28;20457;-69
2021/07/03 10:55:31;;;;;;;1.80;1.50;;;26.50;78.30;;;;;;5073875;28;20555;-69
2021/07/03 10:57:59;;;;;;;2.50;1.70;;;26.80;79.10;;;;;;5073727;28;20459;-70
2021/07/03 11:00:28;;;;;;;1.50;1.43;;;27.10;79.70;;;;;;5073728;28;20543;-69
2021/07/03 11:02:56;;;;;;;2.67;1.93;;;27.30;77.50;;;;;;5073526;28;21073;-70
2021/07/03 11:05:34;;;;;;;2.27;1.80;;;27.40;75.80;;;;;;5073334;28;20456;-69
2021/07/03 11:08:11;;;;;;;1.40;1.30;;;27.40;75.10;;;;;;5072251;28;20449;-69
2021/07/03 11:10:40;;;;;;;1.60;1.50;;;27.30;72.70;;;;;;5073527;28;20456;-69
2021/07/03 11:13:07;;;;;;;2.80;1.93;;;27.30;73.40;;;;;;5073375;28;20460;-69
2021/07/03 11:15:37;;;;;;;1.60;1.43;;;27.30;71.20;;;;;;5072217;28;20943;-69
2021/07/03 11:18:06;;;;;;;2.20;1.50;;;27.40;75.30;;;;;;5073255;28;20959;-69
2021/07/03 11:20:35;;;;;;;2.03;1.50;;;27.60;70.90;;;;;;5073057;28;20485;-68
2021/07/03 11:23:04;;;;;;;2.00;1.47;;;27.70;71.60;;;;;;5073124;28;20453;-69
2021/07/03 11:25:38;;;;;;;4.50;1.77;;;27.80;72.00;;;;;;5073085;28;20465;-69
2021/07/03 11:28:07;;;;;;;1.97;1.50;;;28.00;74.60;;;;;;5071311;28;20453;-69
2021/07/03 11:30:35;;;;;;;1.90;1.70;;;28.20;70.00;;;;;;5072931;28;20943;-69
2021/07/03 11:33:04;;;;;;;2.00;1.50;;;28.30;74.80;;;;;;5072881;28;20959;-69
2021/07/03 11:35:33;;;;;;;2.17;1.60;;;28.60;71.60;;;;;;5072822;28;20453;-69
2021/07/03 11:38:01;;;;;;;2.23;1.60;;;28.70;71.10;;;;;;5072824;28;20951;-69
2021/07/03 11:40:30;;;;;;;1.50;1.40;;;28.90;70.70;;;;;;5072689;28;20461;-69
2021/07/03 11:43:00;;;;;;;2.27;1.70;;;28.90;70.20;;;;;;5072626;28;20658;-69
2021/07/03 11:45:29;;;;;;;1.70;1.40;;;29.00;71.70;;;;;;5072115;28;20480;-69
2021/07/03 11:48:05;;;;;;;1.80;1.70;;;29.20;71.60;;;;;;5072506;28;20461;-70
2021/07/03 11:50:35;;;;;;;2.20;1.77;;;29.30;69.20;;;;;;5071669;28;21029;-69
2021/07/03 11:53:05;;;;;;;2.47;1.93;;;29.50;68.10;;;;;;5071717;28;20461;-68
2021/07/03 11:55:33;;;;;;;2.00;1.77;;;29.60;69.10;;;;;;5071810;28;20440;-69
2021/07/03 11:58:04;;;;;;;1.83;1.60;;;29.70;68.30;;;;;;5071859;28;20461;-69
2021/07/03 12:00:33;;;;;;;2.40;1.73;;;29.80;70.50;;;;;;5071143;28;20498;-68
2021/07/03 12:03:02;;;;;;;2.13;1.60;;;29.90;70.10;;;;;;5072322;28;20506;-69
2021/07/03 12:05:31;;;;;;;2.20;1.90;;;29.90;67.00;;;;;;5084708;28;20464;-70
2021/07/03 12:08:03;;;;;;;3.00;1.90;;;29.40;67.30;;;;;;5092640;28;20488;-69
2021/07/03 12:10:41;;;;;;;1.97;1.60;;;29.10;67.90;;;;;;5091355;28;20479;-69
2021/07/03 12:13:19;;;;;;;2.30;1.50;;;29.00;66.30;;;;;;5092327;28;20451;-69
2021/07/03 12:16:02;;;;;;;1.50;1.20;;;29.10;68.30;;;;;;5092447;28;20550;-69
2021/07/03 12:18:31;;;;;;;2.13;1.57;;;29.30;68.30;;;;;;5092314;28;20459;-69
2021/07/03 12:21:06;;;;;;;2.33;1.80;;;29.60;67.80;;;;;;5092452;28;20472;-70
2021/07/03 12:23:35;;;;;;;1.70;1.40;;;29.60;66.80;;;;;;5091022;28;20459;-69
2021/07/03 12:26:23;;;;;;;2.63;1.50;;;29.30;65.30;;;;;;5070492;28;20432;-69
2021/07/03 12:29:04;;;;;;;2.00;1.67;;;29.30;68.00;;;;;;5092141;28;20536;-69
2021/07/03 12:31:32;;;;;;;2.30;1.63;;;29.70;67.60;;;;;;5092462;28;20534;-69
2021/07/03 12:34:05;;;;;;;2.07;1.60;;;30.00;67.90;;;;;;5092080;28;20464;-69
2021/07/03 12:36:33;;;;;;;2.83;1.90;;;30.10;65.90;;;;;;5092267;28;20548;-69
2021/07/03 12:39:09;;;;;;;1.90;1.60;;;29.90;65.90;;;;;;5092342;28;20530;-69
2021/07/03 12:41:39;;;;;;;2.70;1.93;;;29.80;64.70;;;;;;5092001;28;20463;-70
2021/07/03 12:44:08;;;;;;;2.27;1.73;;;29.80;64.60;;;;;;5091904;28;20464;-70
2021/07/03 12:46:37;;;;;;;1.50;1.50;;;30.10;63.70;;;;;;5092116;28;20452;-69
2021/07/03 12:49:05;;;;;;;2.33;1.87;;;30.40;68.40;;;;;;5091504;28;20492;-69
2021/07/03 12:51:34;;;;;;;2.60;1.40;;;30.50;64.40;;;;;;5091568;28;20480;-68
2021/07/03 12:54:04;;;;;;;2.70;2.10;;;30.60;63.30;;;;;;5091599;28;20501;-69
2021/07/03 12:56:31;;;;;;;2.90;1.73;;;30.80;64.60;;;;;;5091338;28;20506;-69